RJTY/OKO METAR and TAF weather

Enter ICAO airport designator
Station Type Date Time Source
RJTY METAR 2021/03/05 12:28 UTC NOAA

RJTY 051228Z AUTO 00000KT 8SM -RA OVC026 10/09 A3019 RMK AO2 RAB28 SLP230 FZRANO $


Station Type Date Time Source
RJTY Decoded METAR 2021/03/05 12:28 UTC NOAA

Yokota Ab, Japan (RJTY) 35-45N 139-21E 142M
Mar 05, 2021 - 07:28 AM EST / 2021.03.05 1228 UTC
Wind: Calm:0
Visibility: 8 mile(s):0
Sky conditions: overcast
Weather: light rain
Temperature: 50 F (10 C)
Dew Point: 48 F (9 C)
Relative Humidity: 93%
Pressure (altimeter): 30.19 in. Hg (1022 hPa)
ob: RJTY 051228Z AUTO 00000KT 8SM -RA OVC026 10/09 A3019 RMK AO2 RAB28 SLP230 FZRANO
cycle: 12

Station Type Date Time Source
RJTY TAF 2021/03/05 05:10 UTC NOAA

TAF RJTY 050504Z 0505/0611 17009KT 9999 BKN040 BKN060 QNH3017INS
BECMG 0507/0508 VRB06KT 9000 -RA BKN020 OVC040 QNH3015INS
BECMG 0515/0516 36009KT 8000 BR SCT010 OVC020 QNH3008INS
BECMG 0600/0601 03012G18KT 9999 NSW SCT020 BKN040 QNH2998INS TX19/0605Z TN07/0521Z

Example: see airport list